Terminal Aerodrome Forecast
Issued by NWS

Home | Current Version | Previous Version | Text Only | Print | Product List | Glossary On
Versions: 1 2 3 4 5 6 7 8 9 10 11 12 13 14 15 16 17 18 19
000
FTUS43 KSGF 010900 AAA
TAFJLN
TAF AMD
KJLN 010915Z 0109/0206 04005KT P6SM OVC040
      TEMPO 0111/0115 OVC025
     FM020000 VRB04KT P6SM SCT050=

USA.gov is the U.S. government's official web portal to all federal, state and local government web resources and services.